sensor_id;sensor_type;location;lat;lon;timestamp;P1;durP1;ratioP1;P2;durP2;ratioP2
9328;SDS011;4703;48.748;19.142;2022-10-16T00:01:38;17.17;;;15.40;;
9328;SDS011;4703;48.748;19.142;2022-10-16T00:04:05;16.90;;;15.13;;
9328;SDS011;4703;48.748;19.142;2022-10-16T00:06:32;16.73;;;15.00;;
9328;SDS011;4703;48.748;19.142;2022-10-16T00:08:59;15.90;;;14.20;;
9328;SDS011;4703;48.748;19.142;2022-10-16T00:11:28;16.03;;;14.20;;
9328;SDS011;4703;48.748;19.142;2022-10-16T00:14:00;14.73;;;13.33;;
9328;SDS011;4703;48.748;19.142;2022-10-16T00:16:29;15.20;;;13.70;;
9328;SDS011;4703;48.748;19.142;2022-10-16T00:18:56;15.43;;;13.83;;
9328;SDS011;4703;48.748;19.142;2022-10-16T00:21:25;16.07;;;14.40;;
9328;SDS011;4703;48.748;19.142;2022-10-16T00:23:58;15.70;;;14.20;;
9328;SDS011;4703;48.748;19.142;2022-10-16T00:26:31;14.60;;;13.17;;
9328;SDS011;4703;48.748;19.142;2022-10-16T00:29:00;15.13;;;13.57;;
9328;SDS011;4703;48.748;19.142;2022-10-16T00:31:27;14.10;;;12.80;;
9328;SDS011;4703;48.748;19.142;2022-10-16T00:33:54;15.17;;;13.70;;
9328;SDS011;4703;48.748;19.142;2022-10-16T00:36:22;14.30;;;13.00;;
9328;SDS011;4703;48.748;19.142;2022-10-16T00:38:55;15.40;;;13.10;;
9328;SDS011;4703;48.748;19.142;2022-10-16T00:41:30;14.53;;;13.23;;
9328;SDS011;4703;48.748;19.142;2022-10-16T00:43:59;13.93;;;12.63;;
9328;SDS011;4703;48.748;19.142;2022-10-16T00:46:40;15.07;;;13.60;;
9328;SDS011;4703;48.748;19.142;2022-10-16T00:49:12;14.70;;;13.37;;
9328;SDS011;4703;48.748;19.142;2022-10-16T00:51:46;17.60;;;13.03;;
9328;SDS011;4703;48.748;19.142;2022-10-16T00:54:24;14.53;;;13.13;;
9328;SDS011;4703;48.748;19.142;2022-10-16T00:56:55;16.00;;;14.30;;
9328;SDS011;4703;48.748;19.142;2022-10-16T00:59:31;13.83;;;12.43;;
9328;SDS011;4703;48.748;19.142;2022-10-16T01:02:02;16.43;;;13.83;;
9328;SDS011;4703;48.748;19.142;2022-10-16T01:04:35;13.93;;;12.63;;
9328;SDS011;4703;48.748;19.142;2022-10-16T01:12:58;15.70;;;13.97;;
9328;SDS011;4703;48.748;19.142;2022-10-16T01:20:50;14.30;;;12.90;;
9328;SDS011;4703;48.748;19.142;2022-10-16T01:26:08;13.40;;;12.00;;
9328;SDS011;4703;48.748;19.142;2022-10-16T01:31:22;16.43;;;13.00;;
9328;SDS011;4703;48.748;19.142;2022-10-16T01:33:56;15.53;;;13.60;;
9328;SDS011;4703;48.748;19.142;2022-10-16T01:36:40;14.80;;;12.87;;
9328;SDS011;4703;48.748;19.142;2022-10-16T01:39:33;14.30;;;13.00;;
9328;SDS011;4703;48.748;19.142;2022-10-16T01:42:11;13.10;;;11.90;;
9328;SDS011;4703;48.748;19.142;2022-10-16T01:44:47;13.17;;;11.97;;
9328;SDS011;4703;48.748;19.142;2022-10-16T01:47:15;15.10;;;13.00;;
9328;SDS011;4703;48.748;19.142;2022-10-16T01:49:49;14.73;;;13.20;;
9328;SDS011;4703;48.748;19.142;2022-10-16T01:52:19;13.43;;;12.13;;
9328;SDS011;4703;48.748;19.142;2022-10-16T01:54:50;13.90;;;12.50;;
9328;SDS011;4703;48.748;19.142;2022-10-16T01:57:21;14.43;;;12.80;;
9328;SDS011;4703;48.748;19.142;2022-10-16T01:59:51;14.50;;;13.00;;
9328;SDS011;4703;48.748;19.142;2022-10-16T02:02:22;14.50;;;13.10;;
9328;SDS011;4703;48.748;19.142;2022-10-16T02:04:58;14.93;;;13.37;;
9328;SDS011;4703;48.748;19.142;2022-10-16T02:07:59;14.47;;;12.67;;
9328;SDS011;4703;48.748;19.142;2022-10-16T02:10:31;13.83;;;12.33;;
9328;SDS011;4703;48.748;19.142;2022-10-16T02:13:19;13.53;;;12.13;;
9328;SDS011;4703;48.748;19.142;2022-10-16T02:16:12;13.40;;;12.10;;
9328;SDS011;4703;48.748;19.142;2022-10-16T02:18:40;12.80;;;11.60;;
9328;SDS011;4703;48.748;19.142;2022-10-16T02:26:43;13.73;;;12.27;;
9328;SDS011;4703;48.748;19.142;2022-10-16T02:29:19;12.90;;;11.70;;
9328;SDS011;4703;48.748;19.142;2022-10-16T02:31:51;14.27;;;12.83;;
9328;SDS011;4703;48.748;19.142;2022-10-16T02:34:24;13.83;;;12.53;;
9328;SDS011;4703;48.748;19.142;2022-10-16T02:36:53;13.03;;;11.77;;
9328;SDS011;4703;48.748;19.142;2022-10-16T02:39:22;13.60;;;12.20;;
9328;SDS011;4703;48.748;19.142;2022-10-16T02:41:49;13.43;;;12.03;;
9328;SDS011;4703;48.748;19.142;2022-10-16T02:44:16;13.53;;;12.13;;
9328;SDS011;4703;48.748;19.142;2022-10-16T02:46:43;13.77;;;12.47;;
9328;SDS011;4703;48.748;19.142;2022-10-16T02:49:10;14.37;;;12.87;;
9328;SDS011;4703;48.748;19.142;2022-10-16T02:51:37;16.20;;;12.20;;
9328;SDS011;4703;48.748;19.142;2022-10-16T02:54:04;13.70;;;12.40;;
9328;SDS011;4703;48.748;19.142;2022-10-16T02:56:31;12.97;;;11.80;;
9328;SDS011;4703;48.748;19.142;2022-10-16T02:58:59;19.70;;;12.23;;
9328;SDS011;4703;48.748;19.142;2022-10-16T03:01:26;13.10;;;11.90;;
9328;SDS011;4703;48.748;19.142;2022-10-16T03:03:53;13.37;;;11.83;;
9328;SDS011;4703;48.748;19.142;2022-10-16T03:06:20;13.40;;;12.10;;
9328;SDS011;4703;48.748;19.142;2022-10-16T03:08:47;12.00;;;10.80;;
9328;SDS011;4703;48.748;19.142;2022-10-16T03:11:14;14.60;;;11.87;;
9328;SDS011;4703;48.748;19.142;2022-10-16T03:13:41;14.90;;;13.00;;
9328;SDS011;4703;48.748;19.142;2022-10-16T03:16:07;13.30;;;11.63;;
9328;SDS011;4703;48.748;19.142;2022-10-16T03:18:34;12.60;;;11.30;;
9328;SDS011;4703;48.748;19.142;2022-10-16T03:21:02;12.77;;;11.50;;
9328;SDS011;4703;48.748;19.142;2022-10-16T03:23:29;11.70;;;10.60;;
9328;SDS011;4703;48.748;19.142;2022-10-16T03:26:01;12.87;;;11.67;;
9328;SDS011;4703;48.748;19.142;2022-10-16T03:28:28;11.60;;;10.50;;
9328;SDS011;4703;48.748;19.142;2022-10-16T03:30:54;12.60;;;11.27;;
9328;SDS011;4703;48.748;19.142;2022-10-16T03:33:21;13.07;;;11.73;;
9328;SDS011;4703;48.748;19.142;2022-10-16T03:35:52;13.17;;;11.87;;
9328;SDS011;4703;48.748;19.142;2022-10-16T03:38:20;13.33;;;12.00;;
9328;SDS011;4703;48.748;19.142;2022-10-16T03:40:47;13.93;;;10.97;;
9328;SDS011;4703;48.748;19.142;2022-10-16T03:43:14;13.07;;;11.70;;
9328;SDS011;4703;48.748;19.142;2022-10-16T03:45:42;11.37;;;10.20;;
9328;SDS011;4703;48.748;19.142;2022-10-16T03:48:09;11.17;;;10.07;;
9328;SDS011;4703;48.748;19.142;2022-10-16T03:50:36;11.17;;;10.10;;
9328;SDS011;4703;48.748;19.142;2022-10-16T03:53:03;13.67;;;11.60;;
9328;SDS011;4703;48.748;19.142;2022-10-16T03:55:30;15.27;;;11.17;;
9328;SDS011;4703;48.748;19.142;2022-10-16T03:57:57;13.93;;;11.47;;
9328;SDS011;4703;48.748;19.142;2022-10-16T04:00:24;13.80;;;12.33;;
9328;SDS011;4703;48.748;19.142;2022-10-16T04:02:51;11.50;;;10.30;;
9328;SDS011;4703;48.748;19.142;2022-10-16T04:05:18;12.80;;;11.60;;
9328;SDS011;4703;48.748;19.142;2022-10-16T04:07:45;12.83;;;11.50;;
9328;SDS011;4703;48.748;19.142;2022-10-16T04:10:11;12.23;;;11.03;;
9328;SDS011;4703;48.748;19.142;2022-10-16T04:12:38;12.50;;;11.03;;
9328;SDS011;4703;48.748;19.142;2022-10-16T04:15:05;11.73;;;10.73;;
9328;SDS011;4703;48.748;19.142;2022-10-16T04:17:33;13.47;;;12.07;;
9328;SDS011;4703;48.748;19.142;2022-10-16T04:20:00;11.33;;;10.33;;
9328;SDS011;4703;48.748;19.142;2022-10-16T04:22:27;13.10;;;11.40;;
9328;SDS011;4703;48.748;19.142;2022-10-16T04:24:54;11.60;;;10.50;;
9328;SDS011;4703;48.748;19.142;2022-10-16T04:27:21;12.20;;;10.90;;
9328;SDS011;4703;48.748;19.142;2022-10-16T04:29:48;12.90;;;11.60;;
9328;SDS011;4703;48.748;19.142;2022-10-16T04:32:15;11.87;;;10.80;;
9328;SDS011;4703;48.748;19.142;2022-10-16T04:34:42;13.10;;;11.80;;
9328;SDS011;4703;48.748;19.142;2022-10-16T04:37:09;12.20;;;10.90;;
9328;SDS011;4703;48.748;19.142;2022-10-16T04:39:36;12.50;;;11.20;;
9328;SDS011;4703;48.748;19.142;2022-10-16T04:42:03;13.60;;;12.23;;
9328;SDS011;4703;48.748;19.142;2022-10-16T04:44:30;12.23;;;10.93;;
9328;SDS011;4703;48.748;19.142;2022-10-16T04:46:57;11.90;;;10.77;;
9328;SDS011;4703;48.748;19.142;2022-10-16T04:49:24;12.83;;;11.50;;
9328;SDS011;4703;48.748;19.142;2022-10-16T04:51:51;16.00;;;10.90;;
9328;SDS011;4703;48.748;19.142;2022-10-16T04:54:18;12.17;;;10.93;;
9328;SDS011;4703;48.748;19.142;2022-10-16T04:56:45;11.60;;;10.50;;
9328;SDS011;4703;48.748;19.142;2022-10-16T04:59:17;12.23;;;11.03;;
9328;SDS011;4703;48.748;19.142;2022-10-16T05:01:45;14.70;;;12.50;;
9328;SDS011;4703;48.748;19.142;2022-10-16T05:04:12;12.60;;;11.33;;
9328;SDS011;4703;48.748;19.142;2022-10-16T05:06:41;11.47;;;10.37;;
9328;SDS011;4703;48.748;19.142;2022-10-16T05:09:08;12.97;;;10.73;;
9328;SDS011;4703;48.748;19.142;2022-10-16T05:11:36;12.40;;;11.30;;
9328;SDS011;4703;48.748;19.142;2022-10-16T05:14:02;12.53;;;11.20;;
9328;SDS011;4703;48.748;19.142;2022-10-16T05:16:30;12.27;;;11.00;;
9328;SDS011;4703;48.748;19.142;2022-10-16T05:18:57;12.40;;;11.27;;
9328;SDS011;4703;48.748;19.142;2022-10-16T05:21:43;12.00;;;10.77;;
9328;SDS011;4703;48.748;19.142;2022-10-16T05:24:10;12.23;;;11.03;;
9328;SDS011;4703;48.748;19.142;2022-10-16T05:26:37;13.07;;;10.67;;
9328;SDS011;4703;48.748;19.142;2022-10-16T05:29:04;11.23;;;10.13;;
9328;SDS011;4703;48.748;19.142;2022-10-16T05:31:31;12.17;;;10.97;;
9328;SDS011;4703;48.748;19.142;2022-10-16T05:33:59;12.53;;;11.33;;
9328;SDS011;4703;48.748;19.142;2022-10-16T05:36:26;14.60;;;12.20;;
9328;SDS011;4703;48.748;19.142;2022-10-16T05:38:53;13.27;;;11.90;;
9328;SDS011;4703;48.748;19.142;2022-10-16T05:41:20;10.57;;;9.57;;
9328;SDS011;4703;48.748;19.142;2022-10-16T05:43:49;13.13;;;11.43;;
9328;SDS011;4703;48.748;19.142;2022-10-16T05:46:16;18.63;;;12.10;;
9328;SDS011;4703;48.748;19.142;2022-10-16T05:48:43;12.20;;;10.97;;
9328;SDS011;4703;48.748;19.142;2022-10-16T05:51:11;12.90;;;11.70;;
9328;SDS011;4703;48.748;19.142;2022-10-16T05:53:39;11.50;;;10.40;;
9328;SDS011;4703;48.748;19.142;2022-10-16T05:56:10;11.57;;;10.47;;
9328;SDS011;4703;48.748;19.142;2022-10-16T05:58:39;15.70;;;13.10;;
9328;SDS011;4703;48.748;19.142;2022-10-16T06:01:11;15.40;;;13.80;;
9328;SDS011;4703;48.748;19.142;2022-10-16T06:03:39;14.33;;;12.57;;
9328;SDS011;4703;48.748;19.142;2022-10-16T06:06:13;12.83;;;11.10;;
9328;SDS011;4703;48.748;19.142;2022-10-16T06:08:44;11.70;;;10.50;;
9328;SDS011;4703;48.748;19.142;2022-10-16T06:11:13;12.63;;;11.43;;
9328;SDS011;4703;48.748;19.142;2022-10-16T06:13:43;13.73;;;12.17;;
9328;SDS011;4703;48.748;19.142;2022-10-16T06:16:12;12.67;;;11.40;;
9328;SDS011;4703;48.748;19.142;2022-10-16T06:18:39;13.90;;;12.50;;
9328;SDS011;4703;48.748;19.142;2022-10-16T06:21:08;11.97;;;10.87;;
9328;SDS011;4703;48.748;19.142;2022-10-16T06:23:43;13.33;;;11.93;;
9328;SDS011;4703;48.748;19.142;2022-10-16T06:26:13;17.70;;;11.80;;
9328;SDS011;4703;48.748;19.142;2022-10-16T06:28:42;13.70;;;12.50;;
9328;SDS011;4703;48.748;19.142;2022-10-16T06:31:10;12.13;;;10.50;;
9328;SDS011;4703;48.748;19.142;2022-10-16T06:33:38;12.37;;;11.17;;
9328;SDS011;4703;48.748;19.142;2022-10-16T06:36:10;16.10;;;11.23;;
9328;SDS011;4703;48.748;19.142;2022-10-16T06:38:40;12.00;;;10.90;;
9328;SDS011;4703;48.748;19.142;2022-10-16T06:41:09;11.73;;;10.60;;
9328;SDS011;4703;48.748;19.142;2022-10-16T06:43:39;13.50;;;12.10;;
9328;SDS011;4703;48.748;19.142;2022-10-16T06:46:08;11.23;;;10.33;;
9328;SDS011;4703;48.748;19.142;2022-10-16T06:48:37;12.30;;;11.10;;
9328;SDS011;4703;48.748;19.142;2022-10-16T06:51:06;12.90;;;11.00;;
9328;SDS011;4703;48.748;19.142;2022-10-16T06:53:52;12.30;;;11.20;;
9328;SDS011;4703;48.748;19.142;2022-10-16T06:56:32;13.10;;;10.83;;
9328;SDS011;4703;48.748;19.142;2022-10-16T06:59:00;11.33;;;10.23;;
9328;SDS011;4703;48.748;19.142;2022-10-16T07:01:28;12.43;;;11.23;;
9328;SDS011;4703;48.748;19.142;2022-10-16T07:03:56;13.53;;;11.80;;
9328;SDS011;4703;48.748;19.142;2022-10-16T07:06:24;12.23;;;11.13;;
9328;SDS011;4703;48.748;19.142;2022-10-16T07:08:53;12.87;;;11.57;;
9328;SDS011;4703;48.748;19.142;2022-10-16T07:11:21;12.07;;;10.80;;
9328;SDS011;4703;48.748;19.142;2022-10-16T07:13:50;13.17;;;11.87;;
9328;SDS011;4703;48.748;19.142;2022-10-16T07:16:22;12.67;;;11.47;;
9328;SDS011;4703;48.748;19.142;2022-10-16T07:18:55;14.03;;;12.63;;
9328;SDS011;4703;48.748;19.142;2022-10-16T07:21:27;13.73;;;12.43;;
9328;SDS011;4703;48.748;19.142;2022-10-16T07:24:00;12.33;;;11.20;;
9328;SDS011;4703;48.748;19.142;2022-10-16T07:26:28;14.97;;;12.30;;
9328;SDS011;4703;48.748;19.142;2022-10-16T07:28:57;12.57;;;11.47;;
9328;SDS011;4703;48.748;19.142;2022-10-16T07:31:24;12.80;;;11.40;;
9328;SDS011;4703;48.748;19.142;2022-10-16T07:33:51;12.33;;;11.23;;
9328;SDS011;4703;48.748;19.142;2022-10-16T07:36:19;16.97;;;12.70;;
9328;SDS011;4703;48.748;19.142;2022-10-16T07:38:47;12.73;;;11.60;;
9328;SDS011;4703;48.748;19.142;2022-10-16T07:41:14;13.30;;;12.07;;
9328;SDS011;4703;48.748;19.142;2022-10-16T07:43:47;13.30;;;12.00;;
9328;SDS011;4703;48.748;19.142;2022-10-16T07:46:19;13.70;;;12.40;;
9328;SDS011;4703;48.748;19.142;2022-10-16T07:48:48;17.63;;;14.73;;
9328;SDS011;4703;48.748;19.142;2022-10-16T07:51:16;24.90;;;17.80;;
9328;SDS011;4703;48.748;19.142;2022-10-16T07:53:46;15.10;;;13.50;;
9328;SDS011;4703;48.748;19.142;2022-10-16T07:56:14;14.23;;;12.83;;
9328;SDS011;4703;48.748;19.142;2022-10-16T07:58:43;13.30;;;12.00;;
9328;SDS011;4703;48.748;19.142;2022-10-16T08:01:11;13.53;;;11.97;;
9328;SDS011;4703;48.748;19.142;2022-10-16T08:03:41;14.10;;;12.90;;
9328;SDS011;4703;48.748;19.142;2022-10-16T08:06:09;13.03;;;11.73;;
9328;SDS011;4703;48.748;19.142;2022-10-16T08:08:37;12.97;;;11.83;;
9328;SDS011;4703;48.748;19.142;2022-10-16T08:11:04;14.00;;;11.70;;
9328;SDS011;4703;48.748;19.142;2022-10-16T08:13:31;12.83;;;11.67;;
9328;SDS011;4703;48.748;19.142;2022-10-16T08:15:58;12.80;;;11.30;;
9328;SDS011;4703;48.748;19.142;2022-10-16T08:18:25;12.40;;;10.77;;
9328;SDS011;4703;48.748;19.142;2022-10-16T08:20:56;14.53;;;11.27;;
9328;SDS011;4703;48.748;19.142;2022-10-16T08:23:26;11.90;;;10.70;;
9328;SDS011;4703;48.748;19.142;2022-10-16T08:25:54;16.77;;;10.33;;
9328;SDS011;4703;48.748;19.142;2022-10-16T08:28:23;12.90;;;11.30;;
9328;SDS011;4703;48.748;19.142;2022-10-16T08:30:50;12.23;;;11.13;;
9328;SDS011;4703;48.748;19.142;2022-10-16T08:33:17;12.17;;;11.00;;
9328;SDS011;4703;48.748;19.142;2022-10-16T08:35:53;11.47;;;10.30;;
9328;SDS011;4703;48.748;19.142;2022-10-16T08:38:20;12.53;;;11.20;;
9328;SDS011;4703;48.748;19.142;2022-10-16T08:40:47;26.67;;;20.27;;
9328;SDS011;4703;48.748;19.142;2022-10-16T08:43:31;20.27;;;17.30;;
9328;SDS011;4703;48.748;19.142;2022-10-16T08:46:21;15.03;;;13.53;;
9328;SDS011;4703;48.748;19.142;2022-10-16T08:49:16;12.40;;;11.13;;
9328;SDS011;4703;48.748;19.142;2022-10-16T08:51:43;11.73;;;10.67;;
9328;SDS011;4703;48.748;19.142;2022-10-16T08:57:17;12.73;;;11.53;;
9328;SDS011;4703;48.748;19.142;2022-10-16T08:59:49;12.60;;;11.30;;
9328;SDS011;4703;48.748;19.142;2022-10-16T09:08:06;12.07;;;10.67;;
9328;SDS011;4703;48.748;19.142;2022-10-16T09:11:08;12.20;;;10.90;;
9328;SDS011;4703;48.748;19.142;2022-10-16T09:16:48;11.53;;;10.27;;
9328;SDS011;4703;48.748;19.142;2022-10-16T09:21:58;12.43;;;11.23;;
9328;SDS011;4703;48.748;19.142;2022-10-16T09:24:34;11.27;;;10.27;;
9328;SDS011;4703;48.748;19.142;2022-10-16T09:27:02;12.07;;;10.83;;
9328;SDS011;4703;48.748;19.142;2022-10-16T09:29:29;12.03;;;10.60;;
9328;SDS011;4703;48.748;19.142;2022-10-16T09:32:10;11.53;;;10.20;;
9328;SDS011;4703;48.748;19.142;2022-10-16T09:34:42;13.20;;;10.97;;
9328;SDS011;4703;48.748;19.142;2022-10-16T09:37:17;12.97;;;11.73;;
9328;SDS011;4703;48.748;19.142;2022-10-16T09:39:47;11.50;;;10.47;;
9328;SDS011;4703;48.748;19.142;2022-10-16T09:42:18;11.50;;;10.43;;
9328;SDS011;4703;48.748;19.142;2022-10-16T09:44:49;16.10;;;10.67;;
9328;SDS011;4703;48.748;19.142;2022-10-16T09:47:18;12.43;;;11.33;;
9328;SDS011;4703;48.748;19.142;2022-10-16T09:49:57;11.40;;;10.30;;
9328;SDS011;4703;48.748;19.142;2022-10-16T09:52:32;10.70;;;9.60;;
9328;SDS011;4703;48.748;19.142;2022-10-16T09:55:00;12.07;;;10.70;;
9328;SDS011;4703;48.748;19.142;2022-10-16T09:57:52;12.50;;;11.20;;
9328;SDS011;4703;48.748;19.142;2022-10-16T10:00:21;11.10;;;10.00;;
9328;SDS011;4703;48.748;19.142;2022-10-16T10:02:50;11.23;;;10.13;;
9328;SDS011;4703;48.748;19.142;2022-10-16T10:05:18;11.20;;;9.93;;
9328;SDS011;4703;48.748;19.142;2022-10-16T10:07:56;15.30;;;13.90;;
9328;SDS011;4703;48.748;19.142;2022-10-16T10:10:27;21.00;;;18.80;;
9328;SDS011;4703;48.748;19.142;2022-10-16T10:12:56;12.17;;;10.83;;
9328;SDS011;4703;48.748;19.142;2022-10-16T10:15:24;11.67;;;10.50;;
9328;SDS011;4703;48.748;19.142;2022-10-16T10:17:53;11.47;;;10.33;;
9328;SDS011;4703;48.748;19.142;2022-10-16T10:20:24;11.57;;;10.50;;
9328;SDS011;4703;48.748;19.142;2022-10-16T10:23:01;13.23;;;11.97;;
9328;SDS011;4703;48.748;19.142;2022-10-16T10:28:54;12.60;;;11.40;;
9328;SDS011;4703;48.748;19.142;2022-10-16T10:46:20;12.27;;;10.97;;
9328;SDS011;4703;48.748;19.142;2022-10-16T10:49:15;12.40;;;11.20;;
9328;SDS011;4703;48.748;19.142;2022-10-16T10:57:10;12.03;;;10.83;;
9328;SDS011;4703;48.748;19.142;2022-10-16T11:00:00;12.07;;;11.07;;
9328;SDS011;4703;48.748;19.142;2022-10-16T11:02:50;12.37;;;11.13;;
9328;SDS011;4703;48.748;19.142;2022-10-16T11:05:52;13.37;;;12.07;;
9328;SDS011;4703;48.748;19.142;2022-10-16T11:08:39;11.90;;;10.80;;
9328;SDS011;4703;48.748;19.142;2022-10-16T11:11:23;12.30;;;10.93;;
9328;SDS011;4703;48.748;19.142;2022-10-16T11:14:09;12.07;;;10.90;;
9328;SDS011;4703;48.748;19.142;2022-10-16T11:16:57;11.20;;;10.17;;
9328;SDS011;4703;48.748;19.142;2022-10-16T11:22:34;11.87;;;10.70;;
9328;SDS011;4703;48.748;19.142;2022-10-16T11:30:25;11.80;;;10.70;;
9328;SDS011;4703;48.748;19.142;2022-10-16T11:38:26;12.43;;;10.07;;
9328;SDS011;4703;48.748;19.142;2022-10-16T11:41:19;10.60;;;9.60;;
9328;SDS011;4703;48.748;19.142;2022-10-16T11:44:27;12.07;;;10.97;;
9328;SDS011;4703;48.748;19.142;2022-10-16T11:47:37;13.60;;;12.27;;
9328;SDS011;4703;48.748;19.142;2022-10-16T11:50:31;12.17;;;10.93;;
9328;SDS011;4703;48.748;19.142;2022-10-16T11:53:44;12.93;;;11.70;;
9328;SDS011;4703;48.748;19.142;2022-10-16T11:56:12;35.10;;;29.87;;
9328;SDS011;4703;48.748;19.142;2022-10-16T11:58:50;16.67;;;14.97;;
9328;SDS011;4703;48.748;19.142;2022-10-16T12:04:21;12.90;;;11.60;;
9328;SDS011;4703;48.748;19.142;2022-10-16T12:07:16;12.93;;;11.80;;
9328;SDS011;4703;48.748;19.142;2022-10-16T12:09:49;13.00;;;11.60;;
9328;SDS011;4703;48.748;19.142;2022-10-16T12:12:49;13.73;;;12.23;;
9328;SDS011;4703;48.748;19.142;2022-10-16T12:18:22;13.47;;;11.30;;
9328;SDS011;4703;48.748;19.142;2022-10-16T12:20:55;11.90;;;10.90;;
9328;SDS011;4703;48.748;19.142;2022-10-16T12:23:25;12.30;;;11.20;;
9328;SDS011;4703;48.748;19.142;2022-10-16T12:25:56;12.23;;;11.13;;
9328;SDS011;4703;48.748;19.142;2022-10-16T12:28:29;12.90;;;10.83;;
9328;SDS011;4703;48.748;19.142;2022-10-16T12:31:05;11.73;;;10.60;;
9328;SDS011;4703;48.748;19.142;2022-10-16T12:33:42;13.50;;;12.13;;
9328;SDS011;4703;48.748;19.142;2022-10-16T12:36:30;12.20;;;11.07;;
9328;SDS011;4703;48.748;19.142;2022-10-16T12:38:59;11.40;;;10.30;;
9328;SDS011;4703;48.748;19.142;2022-10-16T12:41:28;13.50;;;11.23;;
9328;SDS011;4703;48.748;19.142;2022-10-16T12:43:58;12.17;;;10.93;;
9328;SDS011;4703;48.748;19.142;2022-10-16T12:49:06;12.17;;;11.00;;
9328;SDS011;4703;48.748;19.142;2022-10-16T12:51:40;12.03;;;10.77;;
9328;SDS011;4703;48.748;19.142;2022-10-16T13:03:30;14.30;;;12.90;;
9328;SDS011;4703;48.748;19.142;2022-10-16T13:28:43;8.87;;;8.10;;
9328;SDS011;4703;48.748;19.142;2022-10-16T13:31:13;8.87;;;8.20;;
9328;SDS011;4703;48.748;19.142;2022-10-16T13:33:51;9.27;;;8.20;;
9328;SDS011;4703;48.748;19.142;2022-10-16T13:36:28;8.87;;;7.97;;
9328;SDS011;4703;48.748;19.142;2022-10-16T13:39:14;8.17;;;7.47;;
9328;SDS011;4703;48.748;19.142;2022-10-16T13:44:47;7.80;;;7.20;;
9328;SDS011;4703;48.748;19.142;2022-10-16T13:47:27;8.80;;;8.00;;
9328;SDS011;4703;48.748;19.142;2022-10-16T13:50:06;8.40;;;7.60;;
9328;SDS011;4703;48.748;19.142;2022-10-16T13:52:39;9.17;;;8.37;;
9328;SDS011;4703;48.748;19.142;2022-10-16T13:55:11;8.03;;;7.20;;
9328;SDS011;4703;48.748;19.142;2022-10-16T13:57:43;7.60;;;6.90;;
9328;SDS011;4703;48.748;19.142;2022-10-16T14:00:51;7.97;;;7.37;;
9328;SDS011;4703;48.748;19.142;2022-10-16T14:03:05;7.97;;;7.30;;
9328;SDS011;4703;48.748;19.142;2022-10-16T14:05:49;7.43;;;6.83;;
9328;SDS011;4703;48.748;19.142;2022-10-16T14:08:20;8.70;;;8.00;;
9328;SDS011;4703;48.748;19.142;2022-10-16T14:10:49;9.43;;;6.90;;
9328;SDS011;4703;48.748;19.142;2022-10-16T14:13:20;7.87;;;7.13;;
9328;SDS011;4703;48.748;19.142;2022-10-16T14:15:59;7.93;;;7.40;;
9328;SDS011;4703;48.748;19.142;2022-10-16T14:18:33;7.20;;;6.60;;
9328;SDS011;4703;48.748;19.142;2022-10-16T14:21:11;8.77;;;8.03;;
9328;SDS011;4703;48.748;19.142;2022-10-16T14:23:41;8.03;;;7.43;;
9328;SDS011;4703;48.748;19.142;2022-10-16T14:28:36;6.57;;;5.97;;
9328;SDS011;4703;48.748;19.142;2022-10-16T14:33:45;8.03;;;7.33;;
9328;SDS011;4703;48.748;19.142;2022-10-16T14:36:13;8.20;;;7.50;;
9328;SDS011;4703;48.748;19.142;2022-10-16T14:38:47;8.50;;;7.63;;
9328;SDS011;4703;48.748;19.142;2022-10-16T14:41:24;7.83;;;7.13;;
9328;SDS011;4703;48.748;19.142;2022-10-16T14:43:52;7.63;;;7.00;;
9328;SDS011;4703;48.748;19.142;2022-10-16T14:46:35;7.50;;;6.80;;
9328;SDS011;4703;48.748;19.142;2022-10-16T14:51:38;7.87;;;7.17;;
9328;SDS011;4703;48.748;19.142;2022-10-16T14:54:20;7.93;;;7.23;;
9328;SDS011;4703;48.748;19.142;2022-10-16T14:56:54;7.43;;;6.70;;
9328;SDS011;4703;48.748;19.142;2022-10-16T15:02:00;9.30;;;8.30;;
9328;SDS011;4703;48.748;19.142;2022-10-16T15:04:43;11.50;;;8.37;;
9328;SDS011;4703;48.748;19.142;2022-10-16T15:07:10;9.63;;;8.67;;
9328;SDS011;4703;48.748;19.142;2022-10-16T15:09:37;16.13;;;13.17;;
9328;SDS011;4703;48.748;19.142;2022-10-16T15:12:04;9.30;;;8.40;;
9328;SDS011;4703;48.748;19.142;2022-10-16T15:14:31;8.50;;;7.50;;
9328;SDS011;4703;48.748;19.142;2022-10-16T15:16:58;8.00;;;7.23;;
9328;SDS011;4703;48.748;19.142;2022-10-16T15:19:26;7.37;;;6.67;;
9328;SDS011;4703;48.748;19.142;2022-10-16T15:21:53;7.27;;;6.63;;
9328;SDS011;4703;48.748;19.142;2022-10-16T15:24:20;8.13;;;7.40;;
9328;SDS011;4703;48.748;19.142;2022-10-16T15:26:47;8.93;;;8.03;;
9328;SDS011;4703;48.748;19.142;2022-10-16T15:29:15;8.67;;;7.83;;
9328;SDS011;4703;48.748;19.142;2022-10-16T15:31:42;8.63;;;7.80;;
9328;SDS011;4703;48.748;19.142;2022-10-16T15:34:09;8.53;;;7.73;;
9328;SDS011;4703;48.748;19.142;2022-10-16T15:36:37;8.80;;;7.93;;
9328;SDS011;4703;48.748;19.142;2022-10-16T15:39:10;7.97;;;7.27;;
9328;SDS011;4703;48.748;19.142;2022-10-16T15:41:44;8.53;;;7.73;;
9328;SDS011;4703;48.748;19.142;2022-10-16T15:44:17;8.50;;;7.77;;
9328;SDS011;4703;48.748;19.142;2022-10-16T15:46:44;8.07;;;7.37;;
9328;SDS011;4703;48.748;19.142;2022-10-16T15:49:12;9.23;;;8.43;;
9328;SDS011;4703;48.748;19.142;2022-10-16T15:51:40;8.43;;;7.63;;
9328;SDS011;4703;48.748;19.142;2022-10-16T15:54:08;8.67;;;7.97;;
9328;SDS011;4703;48.748;19.142;2022-10-16T15:56:35;9.13;;;8.27;;
9328;SDS011;4703;48.748;19.142;2022-10-16T15:59:03;8.80;;;8.00;;
9328;SDS011;4703;48.748;19.142;2022-10-16T16:01:34;10.60;;;9.13;;
9328;SDS011;4703;48.748;19.142;2022-10-16T16:04:02;10.30;;;9.30;;
9328;SDS011;4703;48.748;19.142;2022-10-16T16:06:40;10.07;;;9.07;;
9328;SDS011;4703;48.748;19.142;2022-10-16T16:09:11;9.90;;;8.90;;
9328;SDS011;4703;48.748;19.142;2022-10-16T16:11:40;11.80;;;9.50;;
9328;SDS011;4703;48.748;19.142;2022-10-16T16:14:07;11.17;;;10.07;;
9328;SDS011;4703;48.748;19.142;2022-10-16T16:16:39;12.23;;;10.23;;
9328;SDS011;4703;48.748;19.142;2022-10-16T16:19:07;12.23;;;11.03;;
9328;SDS011;4703;48.748;19.142;2022-10-16T16:21:37;10.97;;;10.07;;
9328;SDS011;4703;48.748;19.142;2022-10-16T16:24:04;11.00;;;9.90;;
9328;SDS011;4703;48.748;19.142;2022-10-16T16:26:34;13.23;;;11.93;;
9328;SDS011;4703;48.748;19.142;2022-10-16T16:29:05;15.17;;;13.67;;
9328;SDS011;4703;48.748;19.142;2022-10-16T16:31:32;13.10;;;11.70;;
9328;SDS011;4703;48.748;19.142;2022-10-16T16:34:01;12.70;;;11.40;;
9328;SDS011;4703;48.748;19.142;2022-10-16T16:36:29;11.37;;;10.23;;
9328;SDS011;4703;48.748;19.142;2022-10-16T16:38:56;12.93;;;11.63;;
9328;SDS011;4703;48.748;19.142;2022-10-16T16:41:25;13.30;;;11.93;;
9328;SDS011;4703;48.748;19.142;2022-10-16T16:43:54;13.77;;;12.40;;
9328;SDS011;4703;48.748;19.142;2022-10-16T16:46:22;12.27;;;11.17;;
9328;SDS011;4703;48.748;19.142;2022-10-16T16:48:50;11.67;;;10.47;;
9328;SDS011;4703;48.748;19.142;2022-10-16T16:51:19;11.00;;;10.00;;
9328;SDS011;4703;48.748;19.142;2022-10-16T16:53:47;12.93;;;11.50;;
9328;SDS011;4703;48.748;19.142;2022-10-16T16:56:17;13.97;;;12.53;;
9328;SDS011;4703;48.748;19.142;2022-10-16T16:58:47;13.20;;;12.00;;
9328;SDS011;4703;48.748;19.142;2022-10-16T17:01:16;13.70;;;12.30;;
9328;SDS011;4703;48.748;19.142;2022-10-16T17:03:47;13.20;;;11.97;;
9328;SDS011;4703;48.748;19.142;2022-10-16T17:06:17;12.17;;;11.07;;
9328;SDS011;4703;48.748;19.142;2022-10-16T17:08:51;25.60;;;19.40;;
9328;SDS011;4703;48.748;19.142;2022-10-16T17:11:20;15.17;;;13.57;;
9328;SDS011;4703;48.748;19.142;2022-10-16T17:13:50;14.90;;;12.17;;